Theresa, WI (53091)

3:26 PM CDT on May 29, 2015 (GMT -0500)
Farmersville, WI | | Change Station
CLOSE
Current Station
Personal Weather Station
Location: Mayville, WI
Elevation: 961 ft
Nearby Weather Stations

Elev 961 ft 43.56 °N, 88.54 °W | Updated 11 seconds ago

Overcast
Overcast
74.1 °F
Feels Like 76 °F
N
2.7
Wind Variable Wind from South
Gusts 4.9 mph

Today
High -- | Low -- °F
--% Chance of Precip.
Yesterday
High -- | Low -- °F
Precip. -- in
5:17 AM 8:25 PM
Waxing Gibbous, 85% visible
Pressure 29.92 in
Visibility 10.0 miles
Clouds Mostly Cloudy 7500 ft
Heat Index 76 °F
Dew Point 65 °F
Humidity 73%
Rainfall 0.04 in
Snow Depth Not available.
UV 4.0 out of 12
Pollen 4.60 out of 12
Air Quality Not available.
Flu Activity Sporadic
METAR KUNU 292015Z AUTO 18010KT 10SM BKN075 24/19 A2992 RMK AO2 T02350187

More Conditions Fewer Conditions

Pressure 29.92 in
Visibility 10.0 miles
Clouds Mostly Cloudy 7500 ft
Heat Index 76 °F
Dew Point 65 °F
Humidity 73%
Rainfall 0.04 in
Snow Depth Not available.
UV 4.0 out of 12
Pollen 4.60 out of 12
Air Quality Not available.
Flu Activity Sporadic
METAR KUNU 292015Z AUTO 18010KT 10SM BKN075 24/19 A2992 RMK AO2 T02350187

More Conditions Fewer Conditions

Nowcast | as of 2:04 PM CDT on May 29, 2015

Scattered showers and thunderstorms will continue over south central and southeast Wisconsin through 5 PM CDT this afternoon. A few thunderstorms will deposit heavy rainfall of 1 to 2 inches in several hours. This would result in minor street flooding. Some small hail is also possible from the stronger storms. Clusters of showers and thunderstorms were near Portage and Poynette in Columbia County...and extended northeast toward Fond Du Lac. Another batch of showers and storms were near West Bend and Slinger...and more were located toward the Illinois border around Beloit. All the showers and storms were moving toward the north at 25 mph. Keep one eye on the sky this afternoon for approaching thunderstorms...and be ready to seek shelter.

×

10-Day Weather Forecast

Almanac

Astronomy

May. 29, 2015 Rise Set
Actual Time
Civil Twilight
Nautical Twilight
Astronomical Twilight
Moon
Length of Visible Light
Length of Day
Tomorrow will be .
, % of the Moon is Illuminated

Today's Extremes

State Highs State Lows

Community

WunderPhotos

Upload Photos

1,825,331 photos uploaded!

WunderBlogs® & News

Nearby

Air Quality

  Air Quality AQ Index Pollutant
Not available.

Snow Depth

Station Depth Elevation

Earthquake Activity

City Distance Mag. Time & Date
Minimum magnitude displayed is 2.5.

Coastal Water Temperatures

Place Temperature

Stations

Nearby Weather Stations

Station Location Temp. Windchill Dew Point Humidity Wind Precip. Elev Updated Type